sensor_id;sensor_type;location;lat;lon;timestamp;pressure;altitude;pressure_sealevel;temperature;humidity
71964;BME280;59834;52.124;5.422;2022-07-30T00:01:56;101900.03;;;16.95;81.87
71964;BME280;59834;52.124;5.422;2022-07-30T00:04:22;101902.19;;;16.90;81.60
71964;BME280;59834;52.124;5.422;2022-07-30T00:06:50;101896.38;;;16.85;81.30
71964;BME280;59834;52.124;5.422;2022-07-30T00:09:16;101901.16;;;16.80;81.66
71964;BME280;59834;52.124;5.422;2022-07-30T00:11:45;101900.63;;;16.75;82.69
71964;BME280;59834;52.124;5.422;2022-07-30T00:14:12;101901.56;;;16.74;82.34
71964;BME280;59834;52.124;5.422;2022-07-30T00:16:38;101893.84;;;16.71;82.17
71964;BME280;59834;52.124;5.422;2022-07-30T00:19:05;101903.19;;;16.64;82.24
71964;BME280;59834;52.124;5.422;2022-07-30T00:21:33;101896.19;;;16.63;82.70
71964;BME280;59834;52.124;5.422;2022-07-30T00:24:05;101898.00;;;16.62;82.91
71964;BME280;59834;52.124;5.422;2022-07-30T00:26:31;101894.44;;;16.63;81.96
71964;BME280;59834;52.124;5.422;2022-07-30T00:28:58;101889.13;;;16.63;82.57
71964;BME280;59834;52.124;5.422;2022-07-30T00:31:24;101891.66;;;16.65;81.71
71964;BME280;59834;52.124;5.422;2022-07-30T00:33:51;101888.41;;;16.61;81.93
71964;BME280;59834;52.124;5.422;2022-07-30T00:36:17;101893.91;;;16.58;82.20
71964;BME280;59834;52.124;5.422;2022-07-30T00:38:44;101891.59;;;16.54;82.17
71964;BME280;59834;52.124;5.422;2022-07-30T00:41:11;101884.81;;;16.49;82.39
71964;BME280;59834;52.124;5.422;2022-07-30T00:43:40;101884.31;;;16.44;82.99
71964;BME280;59834;52.124;5.422;2022-07-30T00:46:07;101885.72;;;16.37;82.84
71964;BME280;59834;52.124;5.422;2022-07-30T00:48:35;101889.41;;;16.35;82.82
71964;BME280;59834;52.124;5.422;2022-07-30T00:51:01;101881.63;;;16.33;83.72
71964;BME280;59834;52.124;5.422;2022-07-30T00:53:28;101885.19;;;16.32;82.92
71964;BME280;59834;52.124;5.422;2022-07-30T00:55:55;101887.09;;;16.30;83.50
71964;BME280;59834;52.124;5.422;2022-07-30T00:58:21;101885.53;;;16.27;83.45
71964;BME280;59834;52.124;5.422;2022-07-30T01:00:50;101885.94;;;16.21;83.35
71964;BME280;59834;52.124;5.422;2022-07-30T01:03:17;101889.03;;;16.15;83.43
71964;BME280;59834;52.124;5.422;2022-07-30T01:05:44;101884.56;;;16.16;82.74
71964;BME280;59834;52.124;5.422;2022-07-30T01:08:11;101881.00;;;16.17;83.28
71964;BME280;59834;52.124;5.422;2022-07-30T01:10:38;101874.88;;;16.16;83.10
71964;BME280;59834;52.124;5.422;2022-07-30T01:13:06;101881.00;;;16.17;83.11
71964;BME280;59834;52.124;5.422;2022-07-30T01:15:33;101875.19;;;16.12;83.17
71964;BME280;59834;52.124;5.422;2022-07-30T01:18:01;101877.31;;;16.07;83.46
71964;BME280;59834;52.124;5.422;2022-07-30T01:20:33;101879.63;;;15.98;83.93
71964;BME280;59834;52.124;5.422;2022-07-30T01:23:20;101878.16;;;15.94;83.57
71964;BME280;59834;52.124;5.422;2022-07-30T01:26:03;101870.66;;;15.88;83.65
71964;BME280;59834;52.124;5.422;2022-07-30T01:28:42;101869.00;;;15.87;83.81
71964;BME280;59834;52.124;5.422;2022-07-30T01:31:11;101863.72;;;15.87;84.27
71964;BME280;59834;52.124;5.422;2022-07-30T01:33:42;101864.56;;;15.88;83.89
71964;BME280;59834;52.124;5.422;2022-07-30T01:36:14;101868.16;;;15.87;84.15
71964;BME280;59834;52.124;5.422;2022-07-30T01:38:43;101864.75;;;15.85;84.06
71964;BME280;59834;52.124;5.422;2022-07-30T01:41:11;101877.88;;;15.86;83.62
71964;BME280;59834;52.124;5.422;2022-07-30T01:43:39;101873.53;;;15.85;83.53
71964;BME280;59834;52.124;5.422;2022-07-30T01:46:07;101879.00;;;15.82;83.57
71964;BME280;59834;52.124;5.422;2022-07-30T01:48:39;101873.94;;;15.79;83.64
71964;BME280;59834;52.124;5.422;2022-07-30T01:51:09;101876.78;;;15.76;83.67
71964;BME280;59834;52.124;5.422;2022-07-30T01:53:38;101877.13;;;15.71;84.42
71964;BME280;59834;52.124;5.422;2022-07-30T01:56:10;101869.53;;;15.67;84.06
71964;BME280;59834;52.124;5.422;2022-07-30T01:58:42;101871.59;;;15.62;84.28
71964;BME280;59834;52.124;5.422;2022-07-30T02:01:10;101869.06;;;15.60;84.38
71964;BME280;59834;52.124;5.422;2022-07-30T02:03:40;101877.91;;;15.59;84.63
71964;BME280;59834;52.124;5.422;2022-07-30T02:06:09;101877.06;;;15.59;84.57
71964;BME280;59834;52.124;5.422;2022-07-30T02:08:52;101881.63;;;15.56;84.32
71964;BME280;59834;52.124;5.422;2022-07-30T02:11:22;101886.16;;;15.54;84.47
71964;BME280;59834;52.124;5.422;2022-07-30T02:14:18;101875.91;;;15.50;84.47
71964;BME280;59834;52.124;5.422;2022-07-30T02:16:50;101877.16;;;15.44;85.08
71964;BME280;59834;52.124;5.422;2022-07-30T02:19:22;101879.16;;;15.41;84.86
71964;BME280;59834;52.124;5.422;2022-07-30T02:22:13;101874.94;;;15.38;84.69
71964;BME280;59834;52.124;5.422;2022-07-30T02:24:42;101874.09;;;15.38;84.67
71964;BME280;59834;52.124;5.422;2022-07-30T02:27:13;101877.78;;;15.35;85.21
71964;BME280;59834;52.124;5.422;2022-07-30T02:29:42;101875.53;;;15.29;85.51
71964;BME280;59834;52.124;5.422;2022-07-30T02:32:14;101877.47;;;15.27;85.32
71964;BME280;59834;52.124;5.422;2022-07-30T02:34:45;101875.03;;;15.24;85.33
71964;BME280;59834;52.124;5.422;2022-07-30T02:37:14;101875.22;;;15.21;85.80
71964;BME280;59834;52.124;5.422;2022-07-30T02:39:45;101875.34;;;15.19;85.76
71964;BME280;59834;52.124;5.422;2022-07-30T02:42:14;101879.66;;;15.20;85.52
71964;BME280;59834;52.124;5.422;2022-07-30T02:44:42;101878.81;;;15.20;85.77
71964;BME280;59834;52.124;5.422;2022-07-30T02:47:11;101879.09;;;15.15;85.97
71964;BME280;59834;52.124;5.422;2022-07-30T02:49:39;101880.19;;;15.13;85.47
71964;BME280;59834;52.124;5.422;2022-07-30T02:52:08;101881.09;;;15.12;85.96
71964;BME280;59834;52.124;5.422;2022-07-30T02:54:41;101880.47;;;15.08;86.24
71964;BME280;59834;52.124;5.422;2022-07-30T02:57:11;101876.34;;;15.04;86.24
71964;BME280;59834;52.124;5.422;2022-07-30T02:59:42;101872.09;;;15.01;86.19
71964;BME280;59834;52.124;5.422;2022-07-30T03:02:11;101876.53;;;15.01;86.73
71964;BME280;59834;52.124;5.422;2022-07-30T03:04:40;101870.63;;;14.97;86.58
71964;BME280;59834;52.124;5.422;2022-07-30T03:07:07;101876.84;;;14.96;87.16
71964;BME280;59834;52.124;5.422;2022-07-30T03:09:36;101877.06;;;14.93;86.77
71964;BME280;59834;52.124;5.422;2022-07-30T03:12:18;101875.47;;;14.91;86.41
71964;BME280;59834;52.124;5.422;2022-07-30T03:14:47;101877.13;;;14.92;86.69
71964;BME280;59834;52.124;5.422;2022-07-30T03:17:15;101877.06;;;14.93;86.33
71964;BME280;59834;52.124;5.422;2022-07-30T03:19:44;101879.88;;;14.90;86.46
71964;BME280;59834;52.124;5.422;2022-07-30T03:22:13;101882.72;;;14.87;86.57
71964;BME280;59834;52.124;5.422;2022-07-30T03:24:42;101878.41;;;14.86;86.34
71964;BME280;59834;52.124;5.422;2022-07-30T03:27:17;101878.59;;;14.83;86.17
71964;BME280;59834;52.124;5.422;2022-07-30T03:29:44;101886.59;;;14.81;86.69
71964;BME280;59834;52.124;5.422;2022-07-30T03:32:12;101887.44;;;14.82;86.45
71964;BME280;59834;52.124;5.422;2022-07-30T03:34:41;101874.56;;;14.77;86.12
71964;BME280;59834;52.124;5.422;2022-07-30T03:37:09;101882.59;;;14.76;86.42
71964;BME280;59834;52.124;5.422;2022-07-30T03:39:36;101880.88;;;14.75;86.30
71964;BME280;59834;52.124;5.422;2022-07-30T03:42:05;101884.84;;;14.68;86.22
71964;BME280;59834;52.124;5.422;2022-07-30T03:44:33;101885.03;;;14.65;86.70
71964;BME280;59834;52.124;5.422;2022-07-30T03:47:01;101878.84;;;14.66;86.39
71964;BME280;59834;52.124;5.422;2022-07-30T03:49:28;101877.91;;;14.67;86.39
71964;BME280;59834;52.124;5.422;2022-07-30T03:51:55;101882.53;;;14.63;86.61
71964;BME280;59834;52.124;5.422;2022-07-30T03:54:23;101879.22;;;14.59;86.42
71964;BME280;59834;52.124;5.422;2022-07-30T03:56:51;101889.84;;;14.58;86.28
71964;BME280;59834;52.124;5.422;2022-07-30T03:59:18;101881.88;;;14.59;86.98
71964;BME280;59834;52.124;5.422;2022-07-30T04:01:45;101885.22;;;14.61;86.72
71964;BME280;59834;52.124;5.422;2022-07-30T04:04:12;101892.22;;;14.63;86.64
71964;BME280;59834;52.124;5.422;2022-07-30T04:06:39;101885.81;;;14.67;86.50
71964;BME280;59834;52.124;5.422;2022-07-30T04:09:06;101884.00;;;14.67;86.78
71964;BME280;59834;52.124;5.422;2022-07-30T04:11:33;101897.94;;;14.69;86.50
71964;BME280;59834;52.124;5.422;2022-07-30T04:14:07;101893.41;;;14.71;86.05
71964;BME280;59834;52.124;5.422;2022-07-30T04:16:45;101891.72;;;14.70;85.87
71964;BME280;59834;52.124;5.422;2022-07-30T04:19:29;101899.50;;;14.72;85.92
71964;BME280;59834;52.124;5.422;2022-07-30T04:21:57;101895.94;;;14.73;86.04
71964;BME280;59834;52.124;5.422;2022-07-30T04:24:27;101900.06;;;14.77;85.93
71964;BME280;59834;52.124;5.422;2022-07-30T04:26:59;101905.03;;;14.81;85.94
71964;BME280;59834;52.124;5.422;2022-07-30T04:29:26;101904.66;;;14.88;85.28
71964;BME280;59834;52.124;5.422;2022-07-30T04:31:53;101903.41;;;14.93;85.40
71964;BME280;59834;52.124;5.422;2022-07-30T04:34:19;101903.94;;;14.98;85.35
71964;BME280;59834;52.124;5.422;2022-07-30T04:36:46;101904.69;;;15.00;84.51
71964;BME280;59834;52.124;5.422;2022-07-30T04:39:13;101907.97;;;15.04;84.52
71964;BME280;59834;52.124;5.422;2022-07-30T04:41:41;101907.59;;;15.10;84.56
71964;BME280;59834;52.124;5.422;2022-07-30T04:44:16;101916.91;;;15.16;84.01
71964;BME280;59834;52.124;5.422;2022-07-30T04:46:44;101922.59;;;15.22;84.16
71964;BME280;59834;52.124;5.422;2022-07-30T04:49:11;101924.22;;;15.90;82.86
71964;BME280;59834;52.124;5.422;2022-07-30T04:51:39;101919.47;;;17.54;77.19
71964;BME280;59834;52.124;5.422;2022-07-30T04:54:10;101912.56;;;18.65;73.36
71964;BME280;59834;52.124;5.422;2022-07-30T04:56:42;101912.44;;;19.42;69.61
71964;BME280;59834;52.124;5.422;2022-07-30T04:59:20;101910.81;;;20.23;66.58
71964;BME280;59834;52.124;5.422;2022-07-30T05:01:49;101906.50;;;20.92;63.61
71964;BME280;59834;52.124;5.422;2022-07-30T05:04:21;101906.66;;;21.39;62.22
71964;BME280;59834;52.124;5.422;2022-07-30T05:06:49;101911.34;;;21.84;60.38
71964;BME280;59834;52.124;5.422;2022-07-30T05:09:19;101911.84;;;22.07;59.05
71964;BME280;59834;52.124;5.422;2022-07-30T05:11:53;101903.94;;;22.25;59.65
71964;BME280;59834;52.124;5.422;2022-07-30T05:14:22;101904.97;;;22.42;58.03
71964;BME280;59834;52.124;5.422;2022-07-30T05:16:56;101907.91;;;22.94;57.20
71964;BME280;59834;52.124;5.422;2022-07-30T05:21:50;101901.66;;;23.29;56.13
71964;BME280;59834;52.124;5.422;2022-07-30T05:24:17;101893.13;;;23.69;54.65
71964;BME280;59834;52.124;5.422;2022-07-30T05:26:44;101914.00;;;23.92;53.44
71964;BME280;59834;52.124;5.422;2022-07-30T05:29:11;101909.28;;;24.20;53.70
71964;BME280;59834;52.124;5.422;2022-07-30T05:31:47;101911.59;;;24.49;52.44
71964;BME280;59834;52.124;5.422;2022-07-30T05:34:20;101913.09;;;24.52;52.12
71964;BME280;59834;52.124;5.422;2022-07-30T05:36:48;101924.97;;;24.49;51.75
71964;BME280;59834;52.124;5.422;2022-07-30T05:39:15;101923.31;;;24.64;52.05
71964;BME280;59834;52.124;5.422;2022-07-30T05:41:42;101916.66;;;24.77;51.29
71964;BME280;59834;52.124;5.422;2022-07-30T05:44:08;101916.19;;;24.89;51.04
71964;BME280;59834;52.124;5.422;2022-07-30T05:46:38;101912.19;;;25.10;50.65
71964;BME280;59834;52.124;5.422;2022-07-30T05:49:06;101922.75;;;25.28;50.11
71964;BME280;59834;52.124;5.422;2022-07-30T05:51:36;101920.75;;;25.22;50.46
71964;BME280;59834;52.124;5.422;2022-07-30T05:54:04;101926.28;;;25.45;50.48
71964;BME280;59834;52.124;5.422;2022-07-30T05:56:32;101929.66;;;25.22;49.99
71964;BME280;59834;52.124;5.422;2022-07-30T05:59:07;101932.81;;;25.34;49.96
71964;BME280;59834;52.124;5.422;2022-07-30T06:01:33;101927.91;;;24.97;50.76
71964;BME280;59834;52.124;5.422;2022-07-30T06:04:02;101930.59;;;24.88;50.78
71964;BME280;59834;52.124;5.422;2022-07-30T06:06:29;101933.88;;;24.74;51.28
71964;BME280;59834;52.124;5.422;2022-07-30T06:08:55;101929.63;;;25.14;50.11
71964;BME280;59834;52.124;5.422;2022-07-30T06:11:22;101943.03;;;25.14;50.02
71964;BME280;59834;52.124;5.422;2022-07-30T06:13:49;101932.81;;;25.26;50.17
71964;BME280;59834;52.124;5.422;2022-07-30T06:16:17;101936.31;;;25.34;49.23
71964;BME280;59834;52.124;5.422;2022-07-30T06:18:51;101939.09;;;24.84;51.21
71964;BME280;59834;52.124;5.422;2022-07-30T06:21:18;101934.59;;;24.92;50.73
71964;BME280;59834;52.124;5.422;2022-07-30T06:23:45;101942.66;;;24.92;50.62
71964;BME280;59834;52.124;5.422;2022-07-30T06:26:15;101947.38;;;25.31;49.59
71964;BME280;59834;52.124;5.422;2022-07-30T06:28:47;101943.66;;;25.00;50.06
71964;BME280;59834;52.124;5.422;2022-07-30T06:31:18;101948.69;;;25.03;49.83
71964;BME280;59834;52.124;5.422;2022-07-30T06:33:46;101951.34;;;24.94;49.88
71964;BME280;59834;52.124;5.422;2022-07-30T06:36:13;101950.84;;;25.07;49.59
71964;BME280;59834;52.124;5.422;2022-07-30T06:38:45;101953.44;;;25.25;49.87
71964;BME280;59834;52.124;5.422;2022-07-30T06:41:12;101953.34;;;24.92;50.23
71964;BME280;59834;52.124;5.422;2022-07-30T06:43:41;101949.94;;;24.74;50.28
71964;BME280;59834;52.124;5.422;2022-07-30T06:46:08;101955.09;;;24.59;51.09
71964;BME280;59834;52.124;5.422;2022-07-30T06:48:35;101954.59;;;24.56;51.03
71964;BME280;59834;52.124;5.422;2022-07-30T06:51:05;101961.31;;;24.68;50.34
71964;BME280;59834;52.124;5.422;2022-07-30T06:53:31;101956.31;;;24.81;49.61
71964;BME280;59834;52.124;5.422;2022-07-30T06:56:06;101951.00;;;24.98;49.50
71964;BME280;59834;52.124;5.422;2022-07-30T06:58:33;101956.31;;;24.81;48.38
71964;BME280;59834;52.124;5.422;2022-07-30T07:00:59;101954.28;;;24.25;50.18
71964;BME280;59834;52.124;5.422;2022-07-30T07:03:26;101950.44;;;24.69;49.17
71964;BME280;59834;52.124;5.422;2022-07-30T07:06:07;101955.88;;;23.65;50.63
71964;BME280;59834;52.124;5.422;2022-07-30T07:08:40;101944.47;;;23.55;51.82
71964;BME280;59834;52.124;5.422;2022-07-30T07:11:07;101948.84;;;23.82;50.98
71964;BME280;59834;52.124;5.422;2022-07-30T07:13:36;101952.72;;;23.26;51.94
71964;BME280;59834;52.124;5.422;2022-07-30T07:16:06;101954.97;;;22.85;53.12
71964;BME280;59834;52.124;5.422;2022-07-30T07:18:33;101961.47;;;22.55;53.80
71964;BME280;59834;52.124;5.422;2022-07-30T07:21:00;101966.56;;;22.01;55.78
71964;BME280;59834;52.124;5.422;2022-07-30T07:23:27;101963.50;;;21.96;55.51
71964;BME280;59834;52.124;5.422;2022-07-30T07:26:07;101962.97;;;21.83;56.11
71964;BME280;59834;52.124;5.422;2022-07-30T07:28:34;101964.47;;;21.95;55.85
71964;BME280;59834;52.124;5.422;2022-07-30T07:31:03;101971.09;;;21.91;54.29
71964;BME280;59834;52.124;5.422;2022-07-30T07:33:32;101970.56;;;21.58;54.83
71964;BME280;59834;52.124;5.422;2022-07-30T07:35:59;101977.19;;;21.35;54.97
71964;BME280;59834;52.124;5.422;2022-07-30T07:38:26;101981.13;;;21.40;55.80
71964;BME280;59834;52.124;5.422;2022-07-30T07:40:53;101977.88;;;21.56;54.45
71964;BME280;59834;52.124;5.422;2022-07-30T07:43:19;101982.94;;;21.50;55.74
71964;BME280;59834;52.124;5.422;2022-07-30T07:45:46;101985.16;;;21.74;55.25
71964;BME280;59834;52.124;5.422;2022-07-30T07:48:13;101979.56;;;21.57;55.05
71964;BME280;59834;52.124;5.422;2022-07-30T07:50:40;101983.34;;;21.55;55.14
71964;BME280;59834;52.124;5.422;2022-07-30T07:53:07;101978.44;;;21.60;54.88
71964;BME280;59834;52.124;5.422;2022-07-30T07:55:36;101979.13;;;21.62;55.30
71964;BME280;59834;52.124;5.422;2022-07-30T07:58:03;101979.56;;;21.67;54.79
71964;BME280;59834;52.124;5.422;2022-07-30T08:00:30;101979.66;;;21.75;54.23
71964;BME280;59834;52.124;5.422;2022-07-30T08:02:57;101983.03;;;21.87;54.33
71964;BME280;59834;52.124;5.422;2022-07-30T08:05:23;101982.22;;;21.77;53.87
71964;BME280;59834;52.124;5.422;2022-07-30T08:08:10;101991.78;;;21.60;53.52
71964;BME280;59834;52.124;5.422;2022-07-30T08:10:37;101983.59;;;21.32;54.93
71964;BME280;59834;52.124;5.422;2022-07-30T08:13:03;101979.84;;;21.64;54.40
71964;BME280;59834;52.124;5.422;2022-07-30T08:15:53;101979.56;;;21.67;54.09
71964;BME280;59834;52.124;5.422;2022-07-30T08:18:19;101965.22;;;21.78;54.43
71964;BME280;59834;52.124;5.422;2022-07-30T08:20:46;101971.06;;;22.01;54.21
71964;BME280;59834;52.124;5.422;2022-07-30T08:23:13;101971.19;;;21.99;52.68
71964;BME280;59834;52.124;5.422;2022-07-30T08:25:40;101968.00;;;21.86;52.97
71964;BME280;59834;52.124;5.422;2022-07-30T08:28:07;101972.22;;;21.88;52.81
71964;BME280;59834;52.124;5.422;2022-07-30T08:30:54;101957.16;;;22.07;52.29
71964;BME280;59834;52.124;5.422;2022-07-30T08:33:27;101969.22;;;22.21;52.36
71964;BME280;59834;52.124;5.422;2022-07-30T08:35:53;101972.22;;;22.35;52.98
71964;BME280;59834;52.124;5.422;2022-07-30T08:38:30;101964.66;;;22.41;52.50
71964;BME280;59834;52.124;5.422;2022-07-30T08:41:02;101962.81;;;22.41;50.89
71964;BME280;59834;52.124;5.422;2022-07-30T08:43:29;101976.63;;;22.27;47.88
71964;BME280;59834;52.124;5.422;2022-07-30T08:45:57;101969.34;;;22.09;49.32
71964;BME280;59834;52.124;5.422;2022-07-30T08:48:24;101963.47;;;22.06;50.75
71964;BME280;59834;52.124;5.422;2022-07-30T08:50:52;101962.28;;;21.71;51.09
71964;BME280;59834;52.124;5.422;2022-07-30T08:53:20;101962.84;;;21.75;52.33
71964;BME280;59834;52.124;5.422;2022-07-30T08:55:50;101967.59;;;21.91;50.27
71964;BME280;59834;52.124;5.422;2022-07-30T08:58:33;101959.63;;;21.81;50.87
71964;BME280;59834;52.124;5.422;2022-07-30T09:01:03;101964.09;;;21.80;51.81
71964;BME280;59834;52.124;5.422;2022-07-30T09:03:30;101973.56;;;22.02;50.84
71964;BME280;59834;52.124;5.422;2022-07-30T09:06:00;101964.25;;;22.26;50.88
71964;BME280;59834;52.124;5.422;2022-07-30T09:08:28;101964.09;;;22.37;50.54
71964;BME280;59834;52.124;5.422;2022-07-30T09:10:58;101964.72;;;22.49;50.19
71964;BME280;59834;52.124;5.422;2022-07-30T09:13:26;101966.66;;;22.56;50.07
71964;BME280;59834;52.124;5.422;2022-07-30T09:15:54;101979.59;;;22.79;49.61
71964;BME280;59834;52.124;5.422;2022-07-30T09:20:54;101984.34;;;22.85;50.31
71964;BME280;59834;52.124;5.422;2022-07-30T09:23:24;101986.41;;;22.91;48.72
71964;BME280;59834;52.124;5.422;2022-07-30T09:25:51;101984.72;;;22.90;49.47
71964;BME280;59834;52.124;5.422;2022-07-30T09:28:28;101989.69;;;22.85;50.01
71964;BME280;59834;52.124;5.422;2022-07-30T09:30:56;101985.38;;;22.74;49.99
71964;BME280;59834;52.124;5.422;2022-07-30T09:33:40;101986.72;;;22.88;50.62
71964;BME280;59834;52.124;5.422;2022-07-30T09:36:11;101976.91;;;23.06;49.70
71964;BME280;59834;52.124;5.422;2022-07-30T09:38:43;101984.63;;;23.10;48.25
71964;BME280;59834;52.124;5.422;2022-07-30T09:41:10;101986.91;;;23.22;49.13
71964;BME280;59834;52.124;5.422;2022-07-30T09:43:57;101983.78;;;23.27;49.84
71964;BME280;59834;52.124;5.422;2022-07-30T09:46:47;101974.63;;;23.29;49.75
71964;BME280;59834;52.124;5.422;2022-07-30T09:49:20;101970.88;;;23.40;49.06
71964;BME280;59834;52.124;5.422;2022-07-30T09:51:49;101976.59;;;23.45;48.76
71964;BME280;59834;52.124;5.422;2022-07-30T09:54:47;101980.72;;;23.40;49.36
71964;BME280;59834;52.124;5.422;2022-07-30T09:57:18;101972.81;;;23.48;48.61
71964;BME280;59834;52.124;5.422;2022-07-30T09:59:52;101974.22;;;23.60;49.23
71964;BME280;59834;52.124;5.422;2022-07-30T10:02:20;101977.84;;;23.69;49.22
71964;BME280;59834;52.124;5.422;2022-07-30T10:05:13;101969.19;;;23.57;49.02
71964;BME280;59834;52.124;5.422;2022-07-30T10:07:55;101955.72;;;23.67;48.17
71964;BME280;59834;52.124;5.422;2022-07-30T10:10:30;101965.94;;;23.89;48.89
71964;BME280;59834;52.124;5.422;2022-07-30T10:12:59;101965.84;;;23.99;48.41
71964;BME280;59834;52.124;5.422;2022-07-30T10:15:32;101962.03;;;24.10;48.35
71964;BME280;59834;52.124;5.422;2022-07-30T10:18:03;101952.28;;;24.00;47.48
71964;BME280;59834;52.124;5.422;2022-07-30T10:20:32;101949.78;;;23.99;46.98
71964;BME280;59834;52.124;5.422;2022-07-30T10:23:06;101952.28;;;24.00;47.18
71964;BME280;59834;52.124;5.422;2022-07-30T10:25:36;101958.50;;;24.01;46.44
71964;BME280;59834;52.124;5.422;2022-07-30T10:28:20;101948.34;;;24.13;46.48
71964;BME280;59834;52.124;5.422;2022-07-30T10:30:52;101951.75;;;24.23;46.43
71964;BME280;59834;52.124;5.422;2022-07-30T10:33:21;101952.69;;;24.14;46.51
71964;BME280;59834;52.124;5.422;2022-07-30T10:36:05;101957.41;;;24.20;46.51
71964;BME280;59834;52.124;5.422;2022-07-30T10:38:38;101954.00;;;24.02;46.06
71964;BME280;59834;52.124;5.422;2022-07-30T10:41:23;101949.59;;;23.92;45.63
71964;BME280;59834;52.124;5.422;2022-07-30T10:44:27;101956.34;;;24.05;46.52
71964;BME280;59834;52.124;5.422;2022-07-30T10:47:02;101949.16;;;24.05;45.28
71964;BME280;59834;52.124;5.422;2022-07-30T10:49:37;101957.72;;;24.17;45.26
71964;BME280;59834;52.124;5.422;2022-07-30T10:52:13;101952.97;;;23.76;46.09
71964;BME280;59834;52.124;5.422;2022-07-30T10:54:42;101960.59;;;24.15;45.61
71964;BME280;59834;52.124;5.422;2022-07-30T10:57:19;101960.47;;;24.25;45.20
71964;BME280;59834;52.124;5.422;2022-07-30T11:02:30;101962.75;;;24.20;45.02
71964;BME280;59834;52.124;5.422;2022-07-30T11:08:38;101953.41;;;24.50;45.14
71964;BME280;59834;52.124;5.422;2022-07-30T11:14:07;101962.16;;;24.34;45.84
71964;BME280;59834;52.124;5.422;2022-07-30T11:19:14;101957.97;;;24.66;45.07
71964;BME280;59834;52.124;5.422;2022-07-30T11:22:27;101958.94;;;24.57;45.13
71964;BME280;59834;52.124;5.422;2022-07-30T11:24:55;101963.06;;;24.43;44.47
71964;BME280;59834;52.124;5.422;2022-07-30T11:32:54;101965.41;;;24.97;43.57
71964;BME280;59834;52.124;5.422;2022-07-30T11:35:22;101956.25;;;25.15;43.35
71964;BME280;59834;52.124;5.422;2022-07-30T11:40:33;101967.13;;;25.14;45.07
71964;BME280;59834;52.124;5.422;2022-07-30T11:45:45;101953.06;;;25.61;43.81
71964;BME280;59834;52.124;5.422;2022-07-30T11:48:15;101951.72;;;25.90;42.54
71964;BME280;59834;52.124;5.422;2022-07-30T11:50:45;101954.06;;;25.76;41.59
71964;BME280;59834;52.124;5.422;2022-07-30T11:53:18;101954.41;;;25.65;41.98
71964;BME280;59834;52.124;5.422;2022-07-30T11:55:57;101954.59;;;25.80;42.28
71964;BME280;59834;52.124;5.422;2022-07-30T11:58:29;101951.22;;;25.86;41.87
71964;BME280;59834;52.124;5.422;2022-07-30T12:01:02;101943.00;;;25.96;42.34
71964;BME280;59834;52.124;5.422;2022-07-30T12:03:39;101952.22;;;25.93;41.48
71964;BME280;59834;52.124;5.422;2022-07-30T12:06:09;101948.41;;;25.47;42.03
71964;BME280;59834;52.124;5.422;2022-07-30T12:08:43;101942.38;;;25.53;41.56
71964;BME280;59834;52.124;5.422;2022-07-30T12:11:12;101937.78;;;25.78;42.07
71964;BME280;59834;52.124;5.422;2022-07-30T12:13:40;101938.72;;;26.18;41.91
71964;BME280;59834;52.124;5.422;2022-07-30T12:16:16;101941.88;;;26.21;40.88
71964;BME280;59834;52.124;5.422;2022-07-30T12:18:44;101941.28;;;25.95;40.76
71964;BME280;59834;52.124;5.422;2022-07-30T12:21:11;101939.97;;;25.74;41.66
71964;BME280;59834;52.124;5.422;2022-07-30T12:23:42;101951.41;;;25.60;42.50
71964;BME280;59834;52.124;5.422;2022-07-30T12:26:27;101954.06;;;25.52;42.17
71964;BME280;59834;52.124;5.422;2022-07-30T12:29:01;101951.59;;;25.26;42.17
71964;BME280;59834;52.124;5.422;2022-07-30T12:31:30;101950.25;;;25.30;42.67
71964;BME280;59834;52.124;5.422;2022-07-30T12:33:58;101948.53;;;25.45;42.45
71964;BME280;59834;52.124;5.422;2022-07-30T12:36:31;101948.38;;;25.55;42.13
71964;BME280;59834;52.124;5.422;2022-07-30T12:38:59;101952.41;;;25.59;42.64
71964;BME280;59834;52.124;5.422;2022-07-30T12:41:40;101943.50;;;25.75;42.26
71964;BME280;59834;52.124;5.422;2022-07-30T12:44:08;101943.69;;;25.81;41.54
71964;BME280;59834;52.124;5.422;2022-07-30T12:46:39;101950.69;;;25.91;40.90
71964;BME280;59834;52.124;5.422;2022-07-30T12:49:07;101939.47;;;25.87;41.75
71964;BME280;59834;52.124;5.422;2022-07-30T12:51:52;101942.31;;;25.94;41.51
71964;BME280;59834;52.124;5.422;2022-07-30T12:54:26;101941.78;;;25.98;40.75
71964;BME280;59834;52.124;5.422;2022-07-30T12:56:59;101940.47;;;25.94;40.85
71964;BME280;59834;52.124;5.422;2022-07-30T12:59:28;101941.63;;;26.00;41.42
71964;BME280;59834;52.124;5.422;2022-07-30T13:01:59;101943.59;;;26.14;40.01
71964;BME280;59834;52.124;5.422;2022-07-30T13:04:27;101947.44;;;26.20;40.00
71964;BME280;59834;52.124;5.422;2022-07-30T13:07:09;101948.34;;;25.96;41.10
71964;BME280;59834;52.124;5.422;2022-07-30T13:09:38;101943.34;;;25.84;41.29
71964;BME280;59834;52.124;5.422;2022-07-30T13:12:11;101948.38;;;25.88;41.42
71964;BME280;59834;52.124;5.422;2022-07-30T13:15:21;101932.91;;;25.98;40.63
71964;BME280;59834;52.124;5.422;2022-07-30T13:17:54;101943.00;;;25.96;41.67
71964;BME280;59834;52.124;5.422;2022-07-30T13:20:23;101939.44;;;26.03;42.04
71964;BME280;59834;52.124;5.422;2022-07-30T13:22:55;101934.09;;;25.95;40.99
71964;BME280;59834;52.124;5.422;2022-07-30T13:25:27;101936.47;;;25.90;40.52
71964;BME280;59834;52.124;5.422;2022-07-30T13:28:07;101941.78;;;26.06;40.57
71964;BME280;59834;52.124;5.422;2022-07-30T13:31:11;101933.88;;;26.05;41.09
71964;BME280;59834;52.124;5.422;2022-07-30T13:36:47;101936.19;;;26.24;40.23
71964;BME280;59834;52.124;5.422;2022-07-30T13:39:16;101930.72;;;26.49;38.24
71964;BME280;59834;52.124;5.422;2022-07-30T13:41:50;101924.00;;;26.45;38.36